KRMG/RMG METAR and TAF weather

Enter ICAO airport designator
Station Type Date Time Source
KRMG METAR 2018/12/13 19:53 UTC NOAA

KRMG 131953Z AUTO 13004KT 10SM CLR 13/M03 A3012 RMK AO2 SLP199 T01331028


Station Type Date Time Source
KRMG Decoded METAR 2018/12/13 19:53 UTC NOAA

ROME R. B. RUSSELL AIRPORT, GA, United States (KRMG) 34-21N 085-10W 193M
Dec 13, 2018 - 02:53 PM EST / 2018.12.13 1953 UTC
Wind: from the SE (130 degrees) at 5 MPH (4 KT):0
Visibility: 10 mile(s):0
Sky conditions: clear
Temperature: 55.9 F (13.3 C)
Dew Point: 27.0 F (-2.8 C)
Relative Humidity: 32%
Pressure (altimeter): 30.12 in. Hg (1019 hPa)
ob: KRMG 131953Z AUTO 13004KT 10SM CLR 13/M03 A3012 RMK AO2 SLP199 T01331028
cycle: 20

Station Type Date Time Source
KRMG TAF UTC NOAA

Error!


Example: see airport list